Terminal Aerodrome Forecast
Issued by NWS

Home | Current Version | Previous Version | Text Only | Print | Product List | Glossary On
Versions: 1 2 3 4 5 6 7 8 9 10 11 12 13 14 15 16 17 18 19 20 21 22 23 24 25 26 27 28 29 30 31 32 33 34 35 36
000
FTUS43 KDTX 241450 AAA
TAFPTK
TAF AMD
KPTK 241450Z 2415/2512 VRB05KT P6SM -SHRA SCT040 OVC080
      TEMPO 2415/2417 3SM RA OVC035
     FM241900 23012G20KT P6SM SCT050 BKN100
     FM250100 23007KT P6SM BKN100 OVC250
     FM250400 23007KT P6SM -SHRA OVC040
     FM250900 26008KT 5SM BR SCT020 BKN150=

USA.gov is the U.S. government's official web portal to all federal, state and local government web resources and services.